createdAt,value
2023-04-29T00:01:36.365Z,83.89
2023-04-29T00:04:04.446Z,84.30
2023-04-29T00:06:32.430Z,83.81
2023-04-29T00:09:00.266Z,83.65
2023-04-29T00:11:28.173Z,83.87
2023-04-29T00:13:55.908Z,84.20
2023-04-29T00:16:23.694Z,83.82
2023-04-29T00:18:53.331Z,84.17
2023-04-29T00:21:21.298Z,84.65
2023-04-29T00:23:49.026Z,83.25
2023-04-29T00:26:16.867Z,83.91
2023-04-29T00:28:47.674Z,84.19
2023-04-29T00:31:15.454Z,84.55
2023-04-29T00:33:43.762Z,84.27
2023-04-29T00:36:11.702Z,84.67
2023-04-29T00:38:39.813Z,85.08
2023-04-29T00:41:13.875Z,84.62
2023-04-29T00:43:44.341Z,84.85
2023-04-29T00:46:14.536Z,84.47
2023-04-29T00:48:46.634Z,85.13
2023-04-29T00:51:19.695Z,85.22
2023-04-29T00:53:52.623Z,85.32
2023-04-29T00:56:34.037Z,85.50
2023-04-29T00:59:06.317Z,84.93
2023-04-29T01:01:36.238Z,84.57
2023-04-29T01:04:06.084Z,84.92
2023-04-29T01:07:08.591Z,84.40
2023-04-29T01:10:02.632Z,84.04
2023-04-29T01:12:41.316Z,84.21
2023-04-29T01:15:12.809Z,84.07
2023-04-29T01:17:45.344Z,84.53
2023-04-29T01:20:13.891Z,84.23
2023-04-29T01:22:41.953Z,84.45
2023-04-29T01:25:13.117Z,84.07
2023-04-29T01:28:20.620Z,84.60
2023-04-29T01:31:31.391Z,84.32
2023-04-29T01:34:29.457Z,84.58
2023-04-29T01:37:33.630Z,84.44
2023-04-29T01:40:22.324Z,84.45
2023-04-29T01:43:11.941Z,83.81
2023-04-29T01:45:45.063Z,82.99
2023-04-29T01:48:15.855Z,84.32
2023-04-29T01:50:47.867Z,84.14
2023-04-29T01:53:20.897Z,84.21
2023-04-29T01:55:52.598Z,84.03
2023-04-29T01:58:23.854Z,83.80
2023-04-29T02:01:01.197Z,83.64
2023-04-29T02:03:32.260Z,83.48
2023-04-29T02:06:04.578Z,84.06
2023-04-29T02:08:33.296Z,84.08
2023-04-29T02:11:02.746Z,84.20
2023-04-29T02:13:42.150Z,83.83
2023-04-29T02:16:13.425Z,83.98
2023-04-29T02:18:56.213Z,83.93
2023-04-29T02:21:24.174Z,84.46
2023-04-29T02:23:55.196Z,84.32
2023-04-29T02:26:25.018Z,84.31
2023-04-29T02:28:57.423Z,84.87
2023-04-29T02:31:25.744Z,84.63
2023-04-29T02:33:55.770Z,84.80
2023-04-29T02:36:24.851Z,84.71
2023-04-29T02:38:56.048Z,84.37
2023-04-29T02:41:25.924Z,84.77
2023-04-29T02:43:53.839Z,85.07
2023-04-29T02:46:21.727Z,85.14
2023-04-29T02:48:49.688Z,84.58
2023-04-29T02:51:17.479Z,84.62
2023-04-29T02:53:45.611Z,84.45
2023-04-29T02:56:15.808Z,84.51
2023-04-29T02:58:43.983Z,84.29
2023-04-29T03:01:11.933Z,84.73
2023-04-29T03:03:40.457Z,84.78
2023-04-29T03:06:08.539Z,84.84
2023-04-29T03:08:36.563Z,84.58
2023-04-29T03:11:04.630Z,84.33
2023-04-29T03:14:09.205Z,84.94
2023-04-29T03:16:37.214Z,84.90
2023-04-29T03:19:30.980Z,84.59
2023-04-29T03:22:27.664Z,85.28
2023-04-29T03:24:55.821Z,85.30
2023-04-29T03:27:24.147Z,84.88
2023-04-29T03:29:52.218Z,84.80
2023-04-29T03:32:20.407Z,85.20
2023-04-29T03:34:49.663Z,85.10
2023-04-29T03:37:37.936Z,84.96
2023-04-29T03:40:17.544Z,84.73
2023-04-29T03:42:45.581Z,85.23
2023-04-29T03:45:14.555Z,85.53
2023-04-29T03:47:42.635Z,85.52
2023-04-29T03:50:12.078Z,85.02
2023-04-29T03:52:41.192Z,85.17
2023-04-29T03:55:12.918Z,85.34
2023-04-29T03:57:42.447Z,84.70
2023-04-29T04:00:26.833Z,85.28
2023-04-29T04:03:17.739Z,85.02
2023-04-29T04:05:45.822Z,85.08
2023-04-29T04:08:16.705Z,85.19
2023-04-29T04:11:03.329Z,85.52
2023-04-29T04:13:38.115Z,85.44
2023-04-29T04:16:06.569Z,85.28
2023-04-29T04:18:34.696Z,85.14
2023-04-29T04:21:08.218Z,85.31
2023-04-29T04:23:42.113Z,84.87
2023-04-29T04:26:12.424Z,84.94
2023-04-29T04:28:43.187Z,85.18
2023-04-29T04:31:17.552Z,85.27
2023-04-29T04:33:49.439Z,84.97
2023-04-29T04:36:58.799Z,84.52
2023-04-29T04:39:29.300Z,84.44
2023-04-29T04:41:59.062Z,84.20
2023-04-29T04:44:31.725Z,84.00
2023-04-29T04:47:08.300Z,84.96
2023-04-29T04:50:05.577Z,84.51
2023-04-29T04:52:33.879Z,84.02
2023-04-29T04:55:15.324Z,83.58
2023-04-29T04:57:46.719Z,83.45
2023-04-29T05:00:16.726Z,83.45
2023-04-29T05:02:47.692Z,83.44
2023-04-29T05:05:20.513Z,83.88
2023-04-29T05:11:19.943Z,82.60
2023-04-29T05:14:18.796Z,83.11
2023-04-29T05:16:47.342Z,82.53
2023-04-29T05:19:26.156Z,82.10
2023-04-29T05:21:55.114Z,81.49
2023-04-29T05:24:24.817Z,81.60
2023-04-29T05:26:54.301Z,81.77
2023-04-29T05:34:15.076Z,81.09
2023-04-29T05:37:06.930Z,81.48
2023-04-29T05:39:44.816Z,82.36
2023-04-29T05:42:16.723Z,81.88
2023-04-29T05:44:49.516Z,81.00
2023-04-29T05:47:17.428Z,81.36
2023-04-29T05:53:03.685Z,80.56
2023-04-29T05:55:32.759Z,80.34
2023-04-29T05:58:00.859Z,80.35
2023-04-29T06:00:29.919Z,80.53
2023-04-29T06:03:05.811Z,79.92
2023-04-29T06:05:34.805Z,79.30
2023-04-29T06:08:24.847Z,79.39
2023-04-29T06:11:03.546Z,79.26
2023-04-29T06:13:33.082Z,78.60
2023-04-29T06:16:01.092Z,77.66
2023-04-29T06:18:33.268Z,78.35
2023-04-29T06:21:06.432Z,77.88
2023-04-29T06:23:35.406Z,77.17
2023-04-29T06:26:08.932Z,77.04
2023-04-29T06:28:46.022Z,76.61
2023-04-29T06:31:14.911Z,75.91
2023-04-29T06:33:43.731Z,75.94
2023-04-29T06:36:11.745Z,75.24
2023-04-29T06:38:58.220Z,75.02
2023-04-29T06:41:52.712Z,74.29
2023-04-29T06:44:58.576Z,73.65
2023-04-29T06:47:58.969Z,72.22
2023-04-29T06:50:54.864Z,70.81
2023-04-29T06:53:23.162Z,71.36
2023-04-29T06:55:51.581Z,70.91
2023-04-29T06:58:21.932Z,69.97
2023-04-29T07:00:51.076Z,67.72
2023-04-29T07:03:19.638Z,67.77
2023-04-29T07:05:48.044Z,66.81
2023-04-29T07:08:17.975Z,66.99
2023-04-29T07:10:57.433Z,65.59
2023-04-29T07:13:25.972Z,66.61
2023-04-29T07:15:53.862Z,65.88
2023-04-29T07:18:22.062Z,65.13
2023-04-29T07:20:51.388Z,64.53
2023-04-29T07:23:22.003Z,61.77
2023-04-29T07:25:49.820Z,62.77
2023-04-29T07:28:17.571Z,63.17
2023-04-29T07:30:45.704Z,62.39
2023-04-29T07:33:13.954Z,62.09
2023-04-29T07:35:43.385Z,63.06
2023-04-29T07:38:11.434Z,63.73
2023-04-29T07:40:39.170Z,63.71
2023-04-29T07:43:09.309Z,62.16
2023-04-29T07:45:37.242Z,63.50
2023-04-29T07:48:05.747Z,63.33
2023-04-29T07:50:37.024Z,61.59
2023-04-29T07:53:05.308Z,61.65
2023-04-29T07:55:33.156Z,60.28
2023-04-29T07:58:02.200Z,60.48
2023-04-29T08:00:30.261Z,60.29
2023-04-29T08:02:58.407Z,60.16
2023-04-29T08:05:28.933Z,60.49
2023-04-29T08:07:57.048Z,59.21
2023-04-29T08:10:28.093Z,57.58
2023-04-29T08:12:56.327Z,57.09
2023-04-29T08:15:24.365Z,58.13
2023-04-29T08:17:56.917Z,57.79
2023-04-29T08:20:24.688Z,58.93
2023-04-29T08:22:52.416Z,57.20
2023-04-29T08:25:20.464Z,57.88
2023-04-29T08:27:49.051Z,58.83
2023-04-29T08:30:19.739Z,57.55
2023-04-29T08:32:49.544Z,57.42
2023-04-29T08:35:17.695Z,56.32
2023-04-29T08:37:45.494Z,57.41
2023-04-29T08:40:13.852Z,57.29
2023-04-29T08:42:42.391Z,56.50
2023-04-29T08:45:10.456Z,55.91
2023-04-29T08:47:38.641Z,55.04
2023-04-29T08:50:07.426Z,55.96
2023-04-29T08:52:36.187Z,54.38
2023-04-29T08:55:05.828Z,55.02
2023-04-29T08:57:40.187Z,53.92
2023-04-29T09:00:13.679Z,53.88
2023-04-29T09:02:46.428Z,53.03
2023-04-29T09:05:14.367Z,53.24
2023-04-29T09:07:42.801Z,52.98
2023-04-29T09:10:11.900Z,54.29
2023-04-29T09:12:39.718Z,53.49
2023-04-29T09:15:08.246Z,53.99
2023-04-29T09:17:49.598Z,53.42
2023-04-29T09:20:23.423Z,53.50
2023-04-29T09:22:53.734Z,52.74
2023-04-29T09:25:27.427Z,52.02
2023-04-29T09:27:55.922Z,50.10
2023-04-29T09:30:24.466Z,49.83
2023-04-29T09:33:07.012Z,50.29
2023-04-29T09:35:36.299Z,51.17
2023-04-29T09:38:11.358Z,50.22
2023-04-29T09:40:56.808Z,49.72
2023-04-29T09:43:27.070Z,49.70
2023-04-29T09:45:55.762Z,49.92
2023-04-29T09:48:31.817Z,50.45
2023-04-29T09:51:04.559Z,52.30
2023-04-29T09:53:32.522Z,51.55
2023-04-29T09:56:01.468Z,50.27
2023-04-29T09:58:34.183Z,51.45
2023-04-29T10:01:03.242Z,50.78
2023-04-29T10:03:37.057Z,50.38
2023-04-29T10:06:06.943Z,47.58
2023-04-29T10:08:35.898Z,48.04
2023-04-29T10:11:04.717Z,48.30
2023-04-29T10:13:35.398Z,46.57
2023-04-29T10:16:22.090Z,47.71
2023-04-29T10:18:54.301Z,48.08
2023-04-29T10:21:29.738Z,48.20
2023-04-29T10:23:58.510Z,48.25
2023-04-29T10:26:30.065Z,48.96
2023-04-29T10:29:02.283Z,46.49
2023-04-29T10:31:32.958Z,46.52
2023-04-29T10:34:01.923Z,44.16
2023-04-29T10:36:31.734Z,43.37
2023-04-29T10:39:01.605Z,43.56
2023-04-29T10:41:37.646Z,45.61
2023-04-29T10:44:05.749Z,43.26
2023-04-29T10:46:33.584Z,42.90
2023-04-29T10:49:03.470Z,43.77
2023-04-29T10:51:42.131Z,44.45
2023-04-29T10:54:13.801Z,43.50
2023-04-29T10:56:52.471Z,41.77
2023-04-29T10:59:43.176Z,43.03
2023-04-29T11:02:11.368Z,44.25
2023-04-29T11:05:08.998Z,42.32
2023-04-29T11:07:37.708Z,43.34
2023-04-29T11:10:08.523Z,42.96
2023-04-29T11:12:36.383Z,43.80
2023-04-29T11:15:05.684Z,43.59
2023-04-29T11:17:47.145Z,43.72
2023-04-29T11:20:15.027Z,44.19
2023-04-29T11:22:43.271Z,43.67
2023-04-29T11:25:11.884Z,44.66
2023-04-29T11:27:41.415Z,43.64
2023-04-29T11:30:09.973Z,43.65
2023-04-29T11:32:40.607Z,43.15
2023-04-29T11:35:13.613Z,42.73
2023-04-29T11:37:41.972Z,42.91
2023-04-29T11:40:11.693Z,43.22
2023-04-29T11:42:48.171Z,42.61
2023-04-29T11:45:18.150Z,41.68
2023-04-29T11:47:47.849Z,42.25
2023-04-29T11:50:19.247Z,41.57
2023-04-29T11:52:47.995Z,41.63
2023-04-29T11:55:16.327Z,42.61
2023-04-29T11:57:44.553Z,42.74
2023-04-29T12:00:14.970Z,42.93
2023-04-29T12:02:47.273Z,43.47
2023-04-29T12:05:17.518Z,42.87
2023-04-29T12:07:46.427Z,43.44
2023-04-29T12:10:14.437Z,41.69
2023-04-29T12:12:44.102Z,41.81
2023-04-29T12:15:13.250Z,42.09
2023-04-29T12:17:42.706Z,41.60
2023-04-29T12:20:11.377Z,41.72
2023-04-29T12:22:39.281Z,41.86
2023-04-29T12:25:08.094Z,42.75
2023-04-29T12:27:37.149Z,41.53
2023-04-29T12:30:12.225Z,42.55
2023-04-29T12:32:40.148Z,42.95
2023-04-29T12:35:16.943Z,40.08
2023-04-29T12:37:49.157Z,40.31
2023-04-29T12:40:17.626Z,41.37
2023-04-29T12:42:45.402Z,42.24
2023-04-29T12:45:33.324Z,40.94
2023-04-29T12:48:02.531Z,40.29
2023-04-29T12:50:36.574Z,40.16
2023-04-29T12:53:06.551Z,39.24
2023-04-29T12:55:35.583Z,38.74
2023-04-29T12:58:04.658Z,38.79
2023-04-29T13:00:35.328Z,38.67
2023-04-29T13:03:04.461Z,39.02
2023-04-29T13:05:32.912Z,38.25
2023-04-29T13:08:03.403Z,38.17
2023-04-29T13:10:35.002Z,38.16
2023-04-29T13:13:02.906Z,39.05
2023-04-29T13:15:30.851Z,38.31
2023-04-29T13:18:03.704Z,39.02
2023-04-29T13:20:33.349Z,38.67
2023-04-29T13:23:01.384Z,38.13
2023-04-29T13:25:29.323Z,37.62
2023-04-29T13:27:57.072Z,37.69
2023-04-29T13:30:24.978Z,38.44
2023-04-29T13:32:55.941Z,38.62
2023-04-29T13:35:27.541Z,38.78
2023-04-29T13:37:55.326Z,38.48
2023-04-29T13:40:27.506Z,38.53
2023-04-29T13:43:04.331Z,38.79
2023-04-29T13:45:39.892Z,38.65
2023-04-29T13:48:26.098Z,38.81
2023-04-29T13:58:51.934Z,38.21
2023-04-29T14:02:07.908Z,37.89
2023-04-29T14:04:06.772Z,38.11
2023-04-29T14:06:34.979Z,37.93
2023-04-29T14:09:04.179Z,37.22
2023-04-29T14:11:36.715Z,37.48
2023-04-29T14:14:04.988Z,37.90
2023-04-29T14:16:33.263Z,37.31
2023-04-29T14:19:03.623Z,37.54
2023-04-29T14:21:33.678Z,37.98
2023-04-29T14:24:03.421Z,37.71
2023-04-29T14:26:32.057Z,37.44
2023-04-29T14:29:00.373Z,37.22
2023-04-29T14:31:30.256Z,36.70
2023-04-29T14:33:59.032Z,36.87
2023-04-29T14:36:26.980Z,36.96
2023-04-29T14:38:55.032Z,37.01
2023-04-29T14:41:22.853Z,37.16
2023-04-29T14:43:50.820Z,36.32
2023-04-29T14:46:18.624Z,36.91
2023-04-29T14:48:46.465Z,36.39
2023-04-29T14:51:14.364Z,36.22
2023-04-29T14:53:43.138Z,36.63
2023-04-29T14:56:10.959Z,36.69
2023-04-29T14:58:38.987Z,35.87
2023-04-29T15:01:06.839Z,36.23
2023-04-29T15:06:08.016Z,35.35
2023-04-29T15:08:35.748Z,35.44
2023-04-29T15:11:03.580Z,35.76
2023-04-29T15:13:32.128Z,36.44
2023-04-29T15:16:00.078Z,36.10
2023-04-29T15:18:27.912Z,36.99
2023-04-29T15:20:55.804Z,36.59
2023-04-29T15:23:23.596Z,36.46
2023-04-29T15:25:53.052Z,37.20
2023-04-29T15:28:20.926Z,36.61
2023-04-29T15:30:48.752Z,35.86
2023-04-29T15:33:16.608Z,35.82
2023-04-29T15:35:44.480Z,35.61
2023-04-29T15:38:12.900Z,36.00
2023-04-29T15:40:40.836Z,36.11
2023-04-29T15:43:08.649Z,35.67
2023-04-29T15:45:36.447Z,35.71
2023-04-29T15:48:05.012Z,34.76
2023-04-29T15:50:32.808Z,35.26
2023-04-29T15:53:00.920Z,35.91
2023-04-29T15:55:28.808Z,35.66
2023-04-29T15:57:56.711Z,35.76
2023-04-29T16:00:24.647Z,36.31
2023-04-29T16:02:53.685Z,36.16
2023-04-29T16:05:21.563Z,36.70
2023-04-29T16:07:49.391Z,36.63
2023-04-29T16:10:17.302Z,36.07
2023-04-29T16:12:45.214Z,36.27
2023-04-29T16:15:12.992Z,35.92
2023-04-29T16:17:40.908Z,36.41
2023-04-29T16:20:09.148Z,36.56
2023-04-29T16:22:37.104Z,35.79
2023-04-29T16:25:05.266Z,36.29
2023-04-29T16:27:33.680Z,36.26
2023-04-29T16:30:01.744Z,37.26
2023-04-29T16:32:33.722Z,37.22
2023-04-29T16:35:02.009Z,37.37
2023-04-29T16:37:32.346Z,37.63
2023-04-29T16:40:00.540Z,37.37
2023-04-29T16:42:28.365Z,38.03
2023-04-29T16:44:56.139Z,37.49
2023-04-29T16:47:25.159Z,38.13
2023-04-29T16:49:53.250Z,37.63
2023-04-29T16:52:21.175Z,37.64
2023-04-29T16:54:48.875Z,38.49
2023-04-29T16:57:16.758Z,38.72
2023-04-29T16:59:44.604Z,38.41
2023-04-29T17:02:12.617Z,39.15
2023-04-29T17:04:40.719Z,39.63
2023-04-29T17:07:09.520Z,39.56
2023-04-29T17:09:37.334Z,39.67
2023-04-29T17:12:06.802Z,39.78
2023-04-29T17:14:34.732Z,40.03
2023-04-29T17:17:02.510Z,39.90
2023-04-29T17:19:30.614Z,40.34
2023-04-29T17:21:58.636Z,40.48
2023-04-29T17:24:26.812Z,40.06
2023-04-29T17:26:54.612Z,40.42
2023-04-29T17:29:22.432Z,39.87
2023-04-29T17:31:59.383Z,40.06
2023-04-29T17:34:29.909Z,40.43
2023-04-29T17:36:57.867Z,40.33
2023-04-29T17:39:25.698Z,40.58
2023-04-29T17:41:53.515Z,40.40
2023-04-29T17:44:23.268Z,40.34
2023-04-29T17:46:51.461Z,40.62
2023-04-29T17:49:19.293Z,41.33
2023-04-29T17:51:47.179Z,41.31
2023-04-29T17:54:15.053Z,42.18
2023-04-29T17:56:42.814Z,42.32
2023-04-29T17:59:11.222Z,43.28
2023-04-29T18:01:39.165Z,43.04
2023-04-29T18:04:07.656Z,44.01
2023-04-29T18:06:35.823Z,43.80
2023-04-29T18:09:04.924Z,44.53
2023-04-29T18:11:33.020Z,45.76
2023-04-29T18:14:01.238Z,46.22
2023-04-29T18:16:29.214Z,46.94
2023-04-29T18:18:57.279Z,46.89
2023-04-29T18:21:27.686Z,47.90
2023-04-29T18:23:56.513Z,47.85
2023-04-29T18:26:24.691Z,48.46
2023-04-29T18:28:52.481Z,48.89
2023-04-29T18:31:20.480Z,49.22
2023-04-29T18:33:48.316Z,49.38
2023-04-29T18:36:16.364Z,49.38
2023-04-29T18:38:44.327Z,49.03
2023-04-29T18:41:12.397Z,49.46
2023-04-29T18:43:40.309Z,49.86
2023-04-29T18:46:08.467Z,50.91
2023-04-29T18:48:38.419Z,50.83
2023-04-29T18:51:07.186Z,50.81
2023-04-29T18:53:37.127Z,50.93
2023-04-29T18:56:07.591Z,52.17
2023-04-29T18:58:36.142Z,51.87
2023-04-29T19:01:04.022Z,51.95
2023-04-29T19:03:31.863Z,52.27
2023-04-29T19:06:02.787Z,53.19
2023-04-29T19:08:30.798Z,53.37
2023-04-29T19:11:00.665Z,53.90
2023-04-29T19:13:29.603Z,54.49
2023-04-29T19:16:00.920Z,55.00
2023-04-29T19:18:28.943Z,54.35
2023-04-29T19:20:59.908Z,54.49
2023-04-29T19:23:27.877Z,54.88
2023-04-29T19:25:55.700Z,55.03
2023-04-29T19:28:23.695Z,55.59
2023-04-29T19:30:51.615Z,55.32
2023-04-29T19:33:19.564Z,56.23
2023-04-29T19:35:47.375Z,57.19
2023-04-29T19:38:15.239Z,56.57
2023-04-29T19:40:43.020Z,56.92
2023-04-29T19:43:13.721Z,57.78
2023-04-29T19:45:43.661Z,58.34
2023-04-29T19:48:14.521Z,58.94
2023-04-29T19:50:42.388Z,58.72
2023-04-29T19:53:11.346Z,58.86
2023-04-29T19:55:41.908Z,59.66
2023-04-29T19:58:10.578Z,59.90
2023-04-29T20:00:38.427Z,60.25
2023-04-29T20:03:06.385Z,61.33
2023-04-29T20:05:34.393Z,61.13
2023-04-29T20:08:02.231Z,61.37
2023-04-29T20:10:30.634Z,61.48
2023-04-29T20:12:58.518Z,62.48
2023-04-29T20:15:26.614Z,61.95
2023-04-29T20:17:54.769Z,63.27
2023-04-29T20:20:22.660Z,62.47
2023-04-29T20:22:50.585Z,63.19
2023-04-29T20:25:18.552Z,63.42
2023-04-29T20:27:46.338Z,63.42
2023-04-29T20:30:14.310Z,63.13
2023-04-29T20:32:43.003Z,63.96
2023-04-29T20:35:10.833Z,64.19
2023-04-29T20:37:38.567Z,63.55
2023-04-29T20:40:08.030Z,63.61
2023-04-29T20:42:35.887Z,63.80
2023-04-29T20:45:05.002Z,63.85
2023-04-29T20:47:35.418Z,64.05
2023-04-29T20:50:05.000Z,64.56
2023-04-29T20:52:33.950Z,65.06
2023-04-29T20:55:05.044Z,64.67
2023-04-29T20:57:35.190Z,64.87
2023-04-29T21:00:03.012Z,66.10
2023-04-29T21:02:38.733Z,66.29
2023-04-29T21:05:09.937Z,66.86
2023-04-29T21:07:37.981Z,66.46
2023-04-29T21:10:06.812Z,66.38
2023-04-29T21:12:35.912Z,66.13
2023-04-29T21:15:04.536Z,66.65
2023-04-29T21:17:33.024Z,66.91
2023-04-29T21:20:01.131Z,67.15
2023-04-29T21:22:30.561Z,67.43
2023-04-29T21:24:58.345Z,67.24
2023-04-29T21:27:26.072Z,67.75
2023-04-29T21:29:54.025Z,67.48
2023-04-29T21:32:22.181Z,67.32
2023-04-29T21:34:49.989Z,67.71
2023-04-29T21:37:20.595Z,67.69
2023-04-29T21:39:48.492Z,67.60
2023-04-29T21:42:21.357Z,67.43
2023-04-29T21:44:49.233Z,67.95
2023-04-29T21:47:17.020Z,68.13
2023-04-29T21:49:44.819Z,68.33
2023-04-29T21:52:13.042Z,68.41
2023-04-29T21:54:40.986Z,68.12
2023-04-29T21:57:09.738Z,67.93
2023-04-29T21:59:37.658Z,68.35
2023-04-29T22:02:15.087Z,68.92
2023-04-29T22:04:42.935Z,69.12
2023-04-29T22:07:10.695Z,68.85
2023-04-29T22:09:38.498Z,68.81
2023-04-29T22:12:06.328Z,68.66
2023-04-29T22:14:36.477Z,68.94
2023-04-29T22:17:04.431Z,68.83
2023-04-29T22:19:32.363Z,69.13
2023-04-29T22:22:01.163Z,69.09
2023-04-29T22:24:28.940Z,68.87
2023-04-29T22:26:56.736Z,69.20
2023-04-29T22:29:24.570Z,69.33
2023-04-29T22:31:52.374Z,69.70
2023-04-29T22:34:20.377Z,69.14
2023-04-29T22:36:48.164Z,69.60
2023-04-29T22:39:16.073Z,69.71
2023-04-29T22:41:44.400Z,69.90
2023-04-29T22:44:12.323Z,69.98
2023-04-29T22:46:40.109Z,70.22
2023-04-29T22:49:07.955Z,70.23
2023-04-29T22:51:35.658Z,70.35
2023-04-29T22:54:03.516Z,70.47
2023-04-29T22:56:31.495Z,70.10
2023-04-29T22:58:59.493Z,70.70
2023-04-29T23:01:27.259Z,70.43
2023-04-29T23:03:56.283Z,70.77
2023-04-29T23:06:24.241Z,70.83
2023-04-29T23:08:56.240Z,71.17
2023-04-29T23:11:24.194Z,71.15
2023-04-29T23:13:52.958Z,70.53
2023-04-29T23:16:20.917Z,70.44
2023-04-29T23:18:48.770Z,70.34
2023-04-29T23:21:16.557Z,70.50
2023-04-29T23:23:44.627Z,70.34
2023-04-29T23:26:12.466Z,70.59
2023-04-29T23:28:40.353Z,70.24
2023-04-29T23:31:08.287Z,70.46
2023-04-29T23:33:36.079Z,70.67
2023-04-29T23:36:04.317Z,70.63
2023-04-29T23:38:32.246Z,71.22
2023-04-29T23:41:00.068Z,72.17
2023-04-29T23:43:27.864Z,72.14
2023-04-29T23:45:55.808Z,71.87
2023-04-29T23:48:23.701Z,71.91
2023-04-29T23:50:51.551Z,72.49
2023-04-29T23:53:19.438Z,72.54
2023-04-29T23:55:48.427Z,72.29
2023-04-29T23:58:16.269Z,71.97
